createdAt,value
2023-05-16T00:01:57.673Z,16.44
2023-05-16T00:04:24.742Z,16.41
2023-05-16T00:06:51.604Z,16.40
2023-05-16T00:09:18.220Z,16.39
2023-05-16T00:11:44.913Z,16.40
2023-05-16T00:14:11.760Z,16.39
2023-05-16T00:16:39.244Z,16.39
2023-05-16T00:19:06.739Z,16.37
2023-05-16T00:21:33.433Z,16.36
2023-05-16T00:24:00.039Z,16.34
2023-05-16T00:26:26.673Z,16.30
2023-05-16T00:28:53.323Z,16.27
2023-05-16T00:31:20.210Z,16.25
2023-05-16T00:33:46.864Z,16.24
2023-05-16T00:36:13.471Z,16.23
2023-05-16T00:38:40.084Z,16.24
2023-05-16T00:41:06.743Z,16.22
2023-05-16T00:43:33.369Z,16.20
2023-05-16T00:46:01.192Z,16.21
2023-05-16T00:48:28.688Z,16.21
2023-05-16T00:50:55.321Z,16.21
2023-05-16T00:53:22.842Z,16.19
2023-05-16T00:55:49.460Z,16.19
2023-05-16T00:58:16.496Z,16.18
2023-05-16T01:00:43.148Z,16.16
2023-05-16T01:03:09.874Z,16.14
2023-05-16T01:05:37.933Z,16.14
2023-05-16T01:08:06.181Z,16.13
2023-05-16T01:10:40.458Z,16.11
2023-05-16T01:13:19.904Z,16.11
2023-05-16T01:16:11.235Z,16.12
2023-05-16T01:18:49.144Z,16.10
2023-05-16T01:21:21.691Z,16.09
2023-05-16T01:23:52.755Z,16.09
2023-05-16T01:26:23.752Z,16.10
2023-05-16T01:28:51.537Z,16.10
2023-05-16T01:31:19.369Z,16.08
2023-05-16T01:33:46.262Z,16.07
2023-05-16T01:36:26.501Z,16.06
2023-05-16T01:39:14.294Z,16.03
2023-05-16T01:41:57.609Z,15.99
2023-05-16T01:44:29.695Z,15.96
2023-05-16T01:46:58.473Z,15.93
2023-05-16T01:49:31.346Z,15.92
2023-05-16T01:52:05.568Z,15.90
2023-05-16T01:54:33.589Z,15.88
2023-05-16T01:57:02.074Z,15.87
2023-05-16T01:59:28.633Z,15.84
2023-05-16T02:01:59.505Z,15.81
2023-05-16T02:04:26.442Z,15.80
2023-05-16T02:06:53.034Z,15.79
2023-05-16T02:09:19.707Z,15.76
2023-05-16T02:11:47.204Z,15.73
2023-05-16T02:14:13.967Z,15.67
2023-05-16T02:16:40.676Z,15.63
2023-05-16T02:19:07.644Z,15.61
2023-05-16T02:21:34.595Z,15.61
2023-05-16T02:24:01.754Z,15.63
2023-05-16T02:26:28.369Z,15.63
2023-05-16T02:28:55.074Z,15.61
2023-05-16T02:31:29.430Z,15.61
2023-05-16T02:33:57.161Z,15.58
2023-05-16T02:36:24.038Z,15.56
2023-05-16T02:38:50.730Z,15.53
2023-05-16T02:41:17.343Z,15.52
2023-05-16T02:43:47.161Z,15.50
2023-05-16T02:46:28.217Z,15.49
2023-05-16T02:48:54.906Z,15.48
2023-05-16T02:51:22.913Z,15.46
2023-05-16T02:53:49.644Z,15.45
2023-05-16T02:56:16.456Z,15.44
2023-05-16T02:58:43.183Z,15.45
2023-05-16T03:01:09.930Z,15.44
2023-05-16T03:03:37.255Z,15.41
2023-05-16T03:06:04.041Z,15.37
2023-05-16T03:08:33.311Z,15.35
2023-05-16T03:10:59.922Z,15.31
2023-05-16T03:13:26.521Z,15.29
2023-05-16T03:15:53.220Z,15.29
2023-05-16T03:18:19.964Z,15.25
2023-05-16T03:20:46.692Z,15.27
2023-05-16T03:23:13.826Z,15.27
2023-05-16T03:25:40.631Z,15.30
2023-05-16T03:28:08.002Z,15.33
2023-05-16T03:30:35.005Z,15.31
2023-05-16T03:33:01.910Z,15.28
2023-05-16T03:35:28.789Z,15.28
2023-05-16T03:37:55.813Z,15.30
2023-05-16T03:40:22.478Z,15.29
2023-05-16T03:42:49.671Z,15.30
2023-05-16T03:45:16.297Z,15.30
2023-05-16T03:47:43.104Z,15.30
2023-05-16T03:50:10.088Z,15.27
2023-05-16T03:52:36.734Z,15.26
2023-05-16T03:55:04.327Z,15.26
2023-05-16T03:57:31.674Z,15.27
2023-05-16T03:59:58.320Z,15.28
2023-05-16T04:02:25.039Z,15.29
2023-05-16T04:04:51.749Z,15.29
2023-05-16T04:07:18.394Z,15.28
2023-05-16T04:09:45.243Z,15.28
2023-05-16T04:12:11.957Z,15.27
2023-05-16T04:14:38.561Z,15.26
2023-05-16T04:17:05.864Z,15.25
2023-05-16T04:19:32.565Z,15.22
2023-05-16T04:21:59.285Z,15.23
2023-05-16T04:24:28.898Z,15.23
2023-05-16T04:26:55.678Z,15.24
2023-05-16T04:29:22.294Z,15.24
2023-05-16T04:31:49.063Z,15.23
2023-05-16T04:34:16.046Z,15.26
2023-05-16T04:36:42.835Z,15.28
2023-05-16T04:39:09.440Z,15.29
2023-05-16T04:41:36.185Z,15.28
2023-05-16T04:44:04.610Z,15.28
2023-05-16T04:46:31.461Z,15.29
2023-05-16T04:48:58.246Z,15.28
2023-05-16T04:51:25.090Z,15.26
2023-05-16T04:53:51.936Z,15.25
2023-05-16T04:56:19.060Z,15.24
2023-05-16T04:58:46.071Z,15.23
2023-05-16T05:01:12.704Z,15.23
2023-05-16T05:03:39.410Z,15.23
2023-05-16T05:06:06.368Z,15.23
2023-05-16T05:08:33.003Z,15.21
2023-05-16T05:10:59.584Z,15.18
2023-05-16T05:13:26.192Z,15.17
2023-05-16T05:15:52.864Z,15.19
2023-05-16T05:18:19.628Z,15.21
2023-05-16T05:20:46.380Z,15.21
2023-05-16T05:23:13.264Z,15.21
2023-05-16T05:25:40.946Z,15.22
2023-05-16T05:28:07.480Z,15.18
2023-05-16T05:30:34.062Z,15.14
2023-05-16T05:33:00.767Z,15.12
2023-05-16T05:35:27.790Z,15.09
2023-05-16T05:37:54.646Z,15.08
2023-05-16T05:40:21.295Z,15.09
2023-05-16T05:42:47.975Z,15.10
2023-05-16T05:45:16.108Z,15.08
2023-05-16T05:47:43.027Z,15.07
2023-05-16T05:50:11.499Z,15.01
2023-05-16T05:52:38.432Z,14.90
2023-05-16T05:55:05.795Z,14.81
2023-05-16T05:57:32.452Z,14.81
2023-05-16T05:59:59.049Z,14.83
2023-05-16T06:02:25.762Z,14.82
2023-05-16T06:04:52.482Z,14.81
2023-05-16T06:07:19.527Z,14.80
2023-05-16T06:09:46.398Z,14.82
2023-05-16T06:12:13.010Z,14.81
2023-05-16T06:14:39.611Z,14.78
2023-05-16T06:17:06.288Z,14.76
2023-05-16T06:19:33.112Z,14.72
2023-05-16T06:21:59.705Z,14.70
2023-05-16T06:24:26.463Z,14.70
2023-05-16T06:26:53.270Z,14.71
2023-05-16T06:29:19.849Z,14.74
2023-05-16T06:31:47.420Z,14.79
2023-05-16T06:34:17.120Z,14.81
2023-05-16T06:36:44.739Z,14.83
2023-05-16T06:39:11.798Z,14.82
2023-05-16T06:41:38.436Z,14.85
2023-05-16T06:44:05.192Z,14.89
2023-05-16T06:46:32.954Z,14.92
2023-05-16T06:48:59.729Z,14.95
2023-05-16T06:51:26.418Z,14.99
2023-05-16T06:53:53.087Z,15.02
2023-05-16T06:56:20.210Z,15.04
2023-05-16T06:58:46.972Z,15.09
2023-05-16T07:01:13.685Z,15.11
2023-05-16T07:03:40.553Z,15.15
2023-05-16T07:06:07.498Z,15.18
2023-05-16T07:08:36.031Z,15.17
2023-05-16T07:11:02.687Z,15.14
2023-05-16T07:13:29.342Z,15.14
2023-05-16T07:15:56.112Z,15.14
2023-05-16T07:18:22.789Z,15.16
2023-05-16T07:20:49.809Z,15.15
2023-05-16T07:23:16.446Z,15.16
2023-05-16T07:25:43.347Z,15.16
2023-05-16T07:28:10.385Z,15.16
2023-05-16T07:30:37.047Z,15.17
2023-05-16T07:33:03.785Z,15.19
2023-05-16T07:35:30.703Z,15.22
2023-05-16T07:37:57.456Z,15.23
2023-05-16T07:40:28.372Z,15.25
2023-05-16T07:42:55.332Z,15.25
2023-05-16T07:45:22.014Z,15.27
2023-05-16T07:47:48.737Z,15.28
2023-05-16T07:50:15.536Z,15.29
2023-05-16T07:52:42.204Z,15.29
2023-05-16T07:55:09.748Z,15.30
2023-05-16T07:57:36.404Z,15.33
2023-05-16T08:00:05.150Z,15.35
2023-05-16T08:02:38.634Z,15.36
2023-05-16T08:05:06.160Z,15.39
2023-05-16T08:07:32.965Z,15.42
2023-05-16T08:09:59.528Z,15.44
2023-05-16T08:12:27.412Z,15.47
2023-05-16T08:14:54.001Z,15.50
2023-05-16T08:17:20.849Z,15.52
2023-05-16T08:19:47.445Z,15.56
2023-05-16T08:22:14.180Z,15.60
2023-05-16T08:24:41.329Z,15.60
2023-05-16T08:27:08.965Z,15.59
2023-05-16T08:29:35.809Z,15.60
2023-05-16T08:32:02.395Z,15.60
2023-05-16T08:34:31.221Z,15.61
2023-05-16T08:36:57.805Z,15.62
2023-05-16T08:39:24.441Z,15.67
2023-05-16T08:41:51.095Z,15.71
2023-05-16T08:44:21.805Z,15.76
2023-05-16T08:46:51.410Z,15.81
2023-05-16T08:49:18.193Z,15.89
2023-05-16T08:51:45.798Z,15.99
2023-05-16T08:54:13.583Z,16.11
2023-05-16T08:56:41.477Z,16.23
2023-05-16T08:59:08.127Z,16.31
2023-05-16T09:01:34.944Z,16.37
2023-05-16T09:04:01.806Z,16.44
2023-05-16T09:06:29.004Z,16.52
2023-05-16T09:08:55.656Z,16.60
2023-05-16T09:11:22.459Z,16.72
2023-05-16T09:13:49.279Z,16.85
2023-05-16T09:16:16.648Z,17.00
2023-05-16T09:18:44.869Z,17.10
2023-05-16T09:21:11.706Z,17.17
2023-05-16T09:23:38.354Z,17.25
2023-05-16T09:26:08.290Z,17.30
2023-05-16T09:28:37.328Z,17.34
2023-05-16T09:31:04.200Z,17.40
2023-05-16T09:33:31.066Z,17.45
2023-05-16T09:36:01.063Z,17.47
2023-05-16T09:38:27.962Z,17.46
2023-05-16T09:40:54.903Z,17.42
2023-05-16T09:43:26.384Z,17.38
2023-05-16T09:45:53.000Z,17.35
2023-05-16T09:48:19.951Z,17.32
2023-05-16T09:50:52.436Z,17.29
2023-05-16T09:53:26.484Z,17.29
2023-05-16T09:56:02.597Z,17.27
2023-05-16T09:58:32.618Z,17.19
2023-05-16T10:00:59.399Z,17.12
2023-05-16T10:03:26.641Z,17.09
2023-05-16T10:05:53.910Z,17.06
2023-05-16T10:08:21.609Z,17.02
2023-05-16T10:10:50.054Z,16.98
2023-05-16T10:13:18.908Z,16.95
2023-05-16T10:15:45.761Z,16.93
2023-05-16T10:18:13.538Z,16.90
2023-05-16T10:20:41.610Z,16.88
2023-05-16T10:23:08.554Z,16.87
2023-05-16T10:25:41.778Z,16.85
2023-05-16T10:28:08.766Z,16.81
2023-05-16T10:30:35.931Z,16.79
2023-05-16T10:33:02.844Z,16.77
2023-05-16T10:35:29.712Z,16.76
2023-05-16T10:37:56.806Z,16.76
2023-05-16T10:40:23.386Z,16.78
2023-05-16T10:42:56.483Z,16.80
2023-05-16T10:45:23.478Z,16.82
2023-05-16T10:47:57.106Z,16.85
2023-05-16T10:50:43.776Z,16.91
2023-05-16T10:53:17.721Z,16.98
2023-05-16T10:55:45.054Z,17.03
2023-05-16T10:58:11.672Z,17.07
2023-05-16T11:00:39.377Z,17.13
2023-05-16T11:03:06.526Z,17.19
2023-05-16T11:05:33.338Z,17.24
2023-05-16T11:08:04.490Z,17.25
2023-05-16T11:10:31.100Z,17.24
2023-05-16T11:13:02.416Z,17.23
2023-05-16T11:15:31.468Z,17.25
2023-05-16T11:18:05.236Z,17.27
2023-05-16T11:20:32.755Z,17.29
2023-05-16T11:23:22.761Z,17.33
2023-05-16T11:25:54.058Z,17.38
2023-05-16T11:28:20.948Z,17.41
2023-05-16T11:30:49.664Z,17.42
2023-05-16T11:33:16.958Z,17.44
2023-05-16T11:35:44.301Z,17.45
2023-05-16T11:38:16.692Z,17.46
2023-05-16T11:40:44.560Z,17.47
2023-05-16T11:43:11.646Z,17.48
2023-05-16T11:45:38.272Z,17.50
2023-05-16T11:48:05.177Z,17.52
2023-05-16T11:50:34.118Z,17.53
2023-05-16T11:53:01.641Z,17.52
2023-05-16T11:55:41.366Z,17.51
2023-05-16T11:58:08.907Z,17.49
2023-05-16T12:00:35.762Z,17.47
2023-05-16T12:03:04.693Z,17.49
2023-05-16T12:05:33.109Z,17.51
2023-05-16T12:08:00.528Z,17.53
2023-05-16T12:10:27.390Z,17.53
2023-05-16T12:12:55.491Z,17.53
2023-05-16T12:15:22.154Z,17.53
2023-05-16T12:17:48.868Z,17.54
2023-05-16T12:20:16.402Z,17.57
2023-05-16T12:22:43.821Z,17.61
2023-05-16T12:25:30.741Z,17.63
2023-05-16T12:27:58.438Z,17.64
2023-05-16T12:30:25.816Z,17.66
2023-05-16T12:32:59.642Z,17.69
2023-05-16T12:35:27.036Z,17.73
2023-05-16T12:37:53.638Z,17.76
2023-05-16T12:40:20.967Z,17.76
2023-05-16T12:42:51.648Z,17.76
2023-05-16T12:45:18.776Z,17.79
2023-05-16T12:47:45.849Z,17.83
2023-05-16T12:50:14.539Z,17.86
2023-05-16T12:52:50.930Z,17.90
2023-05-16T12:55:18.524Z,17.97
2023-05-16T12:57:45.642Z,18.06
2023-05-16T13:00:12.802Z,18.16
2023-05-16T13:02:39.509Z,18.28
2023-05-16T13:05:10.351Z,18.40
2023-05-16T13:07:37.510Z,18.44
2023-05-16T13:10:04.487Z,18.51
2023-05-16T13:12:31.187Z,18.58
2023-05-16T13:14:57.779Z,18.63
2023-05-16T13:17:24.428Z,18.66
2023-05-16T13:19:51.603Z,18.67
2023-05-16T13:22:18.166Z,18.65
2023-05-16T13:24:44.811Z,18.63
2023-05-16T13:27:14.337Z,18.63
2023-05-16T13:29:41.534Z,18.64
2023-05-16T13:32:08.399Z,18.65
2023-05-16T13:34:35.429Z,18.66
2023-05-16T13:37:02.305Z,18.70
2023-05-16T13:39:28.914Z,18.73
2023-05-16T13:41:55.718Z,18.75
2023-05-16T13:44:22.699Z,18.78
2023-05-16T13:46:49.601Z,18.82
2023-05-16T13:49:16.225Z,18.88
2023-05-16T13:51:43.059Z,18.95
2023-05-16T13:54:09.707Z,19.01
2023-05-16T13:56:36.318Z,19.05
2023-05-16T13:59:06.986Z,19.07
2023-05-16T14:01:34.572Z,19.08
2023-05-16T14:04:01.431Z,19.07
2023-05-16T14:06:28.452Z,19.03
2023-05-16T14:08:55.035Z,18.98
2023-05-16T14:11:28.888Z,18.94
2023-05-16T14:13:56.147Z,18.91
2023-05-16T14:16:22.998Z,18.88
2023-05-16T14:18:49.629Z,18.85
2023-05-16T14:21:16.214Z,18.81
2023-05-16T14:23:42.841Z,18.79
2023-05-16T14:26:09.403Z,18.78
2023-05-16T14:28:36.331Z,18.79
2023-05-16T14:31:03.460Z,18.78
2023-05-16T14:33:31.177Z,18.77
2023-05-16T14:35:58.327Z,18.77
2023-05-16T14:38:25.167Z,18.74
2023-05-16T14:40:51.872Z,18.73
2023-05-16T14:43:18.478Z,18.72
2023-05-16T14:45:45.144Z,18.71
2023-05-16T14:48:11.841Z,18.70
2023-05-16T14:50:38.560Z,18.67
2023-05-16T14:53:05.194Z,18.66
2023-05-16T14:55:31.805Z,18.65
2023-05-16T14:58:00.113Z,18.64
2023-05-16T15:00:27.521Z,18.60
2023-05-16T15:02:54.436Z,18.57
2023-05-16T15:05:21.278Z,18.57
2023-05-16T15:07:48.561Z,18.55
2023-05-16T15:10:15.201Z,18.53
2023-05-16T15:12:43.355Z,18.52
2023-05-16T15:15:12.550Z,18.51
2023-05-16T15:17:41.612Z,18.53
2023-05-16T15:20:09.518Z,18.55
2023-05-16T15:22:36.348Z,18.54
2023-05-16T15:25:04.596Z,18.54
2023-05-16T15:27:31.714Z,18.57
2023-05-16T15:29:58.570Z,18.58
2023-05-16T15:32:26.099Z,18.54
2023-05-16T15:34:52.873Z,18.54
2023-05-16T15:37:19.532Z,18.55
2023-05-16T15:39:46.317Z,18.53
2023-05-16T15:42:13.006Z,18.53
2023-05-16T15:44:39.902Z,18.54
2023-05-16T15:47:06.838Z,18.53
2023-05-16T15:49:33.446Z,18.51
2023-05-16T15:52:00.038Z,18.50
2023-05-16T15:54:27.599Z,18.50
2023-05-16T15:56:54.425Z,18.47
2023-05-16T15:59:21.009Z,18.45
2023-05-16T16:01:47.683Z,18.45
2023-05-16T16:04:14.320Z,18.43
2023-05-16T16:06:40.884Z,18.42
2023-05-16T16:09:08.181Z,18.39
2023-05-16T16:11:34.915Z,18.38
2023-05-16T16:14:01.605Z,18.36
2023-05-16T16:16:28.241Z,18.34
2023-05-16T16:18:54.899Z,18.31
2023-05-16T16:21:21.645Z,18.27
2023-05-16T16:23:48.253Z,18.24
2023-05-16T16:26:14.862Z,18.21
2023-05-16T16:28:41.494Z,18.17
2023-05-16T16:31:08.131Z,18.13
2023-05-16T16:33:35.014Z,18.11
2023-05-16T16:36:01.849Z,18.08
2023-05-16T16:38:28.486Z,18.05
2023-05-16T16:40:55.291Z,18.04
2023-05-16T16:43:21.874Z,18.02
2023-05-16T16:45:48.490Z,17.99
2023-05-16T16:48:15.108Z,17.97
2023-05-16T16:50:41.748Z,17.96
2023-05-16T16:53:08.548Z,17.96
2023-05-16T16:55:35.993Z,17.96
2023-05-16T16:58:03.441Z,17.94
2023-05-16T17:00:30.057Z,17.91
2023-05-16T17:02:56.941Z,17.89
2023-05-16T17:05:23.767Z,17.87
2023-05-16T17:07:50.356Z,17.85
2023-05-16T17:10:16.980Z,17.82
2023-05-16T17:12:49.175Z,17.78
2023-05-16T17:15:17.394Z,17.74
2023-05-16T17:17:44.877Z,17.68
2023-05-16T17:20:12.734Z,17.63
2023-05-16T17:22:41.110Z,17.58
2023-05-16T17:25:10.532Z,17.52
2023-05-16T17:27:37.192Z,17.46
2023-05-16T17:30:04.810Z,17.40
2023-05-16T17:32:31.847Z,17.35
2023-05-16T17:35:03.295Z,17.28
2023-05-16T17:37:30.343Z,17.21
2023-05-16T17:39:57.705Z,17.15
2023-05-16T17:42:24.705Z,17.11
2023-05-16T17:44:51.287Z,17.09
2023-05-16T17:47:19.573Z,17.08
2023-05-16T17:49:46.885Z,17.06
2023-05-16T17:52:14.712Z,17.04
2023-05-16T17:54:41.408Z,17.01
2023-05-16T17:57:08.841Z,16.98
2023-05-16T17:59:35.704Z,16.93
2023-05-16T18:02:03.999Z,16.88
2023-05-16T18:04:30.650Z,16.83
2023-05-16T18:06:57.427Z,16.78
2023-05-16T18:09:24.383Z,16.72
2023-05-16T18:11:51.552Z,16.66
2023-05-16T18:14:18.221Z,16.63
2023-05-16T18:16:44.886Z,16.59
2023-05-16T18:19:11.705Z,16.54
2023-05-16T18:21:38.973Z,16.52
2023-05-16T18:24:08.567Z,16.50
2023-05-16T18:26:35.286Z,16.47
2023-05-16T18:29:02.844Z,16.45
2023-05-16T18:31:30.732Z,16.43
2023-05-16T18:33:57.602Z,16.43
2023-05-16T18:36:24.261Z,16.40
2023-05-16T18:38:50.933Z,16.38
2023-05-16T18:41:17.687Z,16.36
2023-05-16T18:43:44.642Z,16.33
2023-05-16T18:46:11.221Z,16.30
2023-05-16T18:48:38.077Z,16.27
2023-05-16T18:51:04.696Z,16.26
2023-05-16T18:53:31.366Z,16.25
2023-05-16T18:55:58.681Z,16.24
2023-05-16T18:58:25.330Z,16.22
2023-05-16T19:00:51.977Z,16.17
2023-05-16T19:03:19.314Z,16.17
2023-05-16T19:05:46.339Z,16.11
2023-05-16T19:08:13.098Z,16.10
2023-05-16T19:10:41.698Z,16.09
2023-05-16T19:13:08.996Z,16.09
2023-05-16T19:15:35.815Z,16.09
2023-05-16T19:18:02.796Z,16.09
2023-05-16T19:20:29.737Z,16.09
2023-05-16T19:22:56.874Z,16.09
2023-05-16T19:25:23.482Z,16.09
2023-05-16T19:27:50.374Z,16.10
2023-05-16T19:30:17.045Z,16.12
2023-05-16T19:32:43.998Z,16.13
2023-05-16T19:35:10.957Z,16.12
2023-05-16T19:37:37.668Z,16.10
2023-05-16T19:40:04.817Z,16.09
2023-05-16T19:42:31.666Z,16.06
2023-05-16T19:44:58.596Z,16.05
2023-05-16T19:47:25.263Z,16.04
2023-05-16T19:49:51.917Z,16.03
2023-05-16T19:52:18.515Z,16.04
2023-05-16T19:54:45.242Z,16.03
2023-05-16T19:57:12.022Z,16.01
2023-05-16T19:59:38.678Z,16.02
2023-05-16T20:02:05.315Z,16.00
2023-05-16T20:04:31.915Z,15.98
2023-05-16T20:06:58.559Z,15.97
2023-05-16T20:09:25.277Z,15.97
2023-05-16T20:11:53.641Z,15.97
2023-05-16T20:14:21.051Z,15.94
2023-05-16T20:16:47.960Z,15.92
2023-05-16T20:19:15.478Z,15.91
2023-05-16T20:21:42.171Z,15.88
2023-05-16T20:24:08.821Z,15.86
2023-05-16T20:26:35.744Z,15.81
2023-05-16T20:29:02.330Z,15.78
2023-05-16T20:31:28.911Z,15.76
2023-05-16T20:33:55.701Z,15.73
2023-05-16T20:36:22.374Z,15.70
2023-05-16T20:38:49.274Z,15.67
2023-05-16T20:41:15.873Z,15.63
2023-05-16T20:43:42.548Z,15.62
2023-05-16T20:46:09.345Z,15.59
2023-05-16T20:48:35.998Z,15.56
2023-05-16T20:51:02.704Z,15.57
2023-05-16T20:53:29.312Z,15.57
2023-05-16T20:55:55.896Z,15.56
2023-05-16T20:58:22.483Z,15.56
2023-05-16T21:00:49.064Z,15.56
2023-05-16T21:03:15.834Z,15.55
2023-05-16T21:05:42.416Z,15.55
2023-05-16T21:08:09.093Z,15.53
2023-05-16T21:10:35.695Z,15.51
2023-05-16T21:13:02.300Z,15.49
2023-05-16T21:15:29.128Z,15.48
2023-05-16T21:17:56.346Z,15.48
2023-05-16T21:20:23.178Z,15.48
2023-05-16T21:22:49.767Z,15.48
2023-05-16T21:25:16.881Z,15.48
2023-05-16T21:27:43.448Z,15.47
2023-05-16T21:30:10.290Z,15.38
2023-05-16T21:32:36.926Z,15.36
2023-05-16T21:35:04.827Z,15.31
2023-05-16T21:37:31.522Z,15.25
2023-05-16T21:39:58.451Z,15.20
2023-05-16T21:42:25.115Z,15.17
2023-05-16T21:44:52.055Z,15.15
2023-05-16T21:47:18.880Z,15.13
2023-05-16T21:49:45.623Z,15.09
2023-05-16T21:52:12.479Z,15.06
2023-05-16T21:54:39.058Z,15.07
2023-05-16T21:57:06.543Z,15.05
2023-05-16T21:59:33.175Z,15.00
2023-05-16T22:01:59.835Z,14.99
2023-05-16T22:04:27.070Z,15.00
2023-05-16T22:06:53.789Z,14.99
2023-05-16T22:09:20.594Z,14.96
2023-05-16T22:11:47.149Z,14.93
2023-05-16T22:14:13.777Z,14.91
2023-05-16T22:16:40.586Z,14.92
2023-05-16T22:19:07.821Z,14.91
2023-05-16T22:21:34.490Z,14.90
2023-05-16T22:24:01.121Z,14.92
2023-05-16T22:26:27.726Z,14.94
2023-05-16T22:28:54.324Z,14.95
2023-05-16T22:31:21.227Z,14.96
2023-05-16T22:33:48.016Z,14.97
2023-05-16T22:36:14.687Z,15.00
2023-05-16T22:38:41.241Z,15.05
2023-05-16T22:41:07.984Z,15.10
2023-05-16T22:43:34.569Z,15.14
2023-05-16T22:46:03.134Z,15.18
2023-05-16T22:48:30.379Z,15.21
2023-05-16T22:50:57.345Z,15.26
2023-05-16T22:53:24.025Z,15.29
2023-05-16T22:55:50.881Z,15.32
2023-05-16T22:58:17.928Z,15.34
2023-05-16T23:00:44.510Z,15.36
2023-05-16T23:03:11.380Z,15.36
2023-05-16T23:05:38.037Z,15.36
2023-05-16T23:08:04.812Z,15.38
2023-05-16T23:10:31.716Z,15.40
2023-05-16T23:12:58.532Z,15.42
2023-05-16T23:15:25.145Z,15.43
2023-05-16T23:17:51.871Z,15.44
2023-05-16T23:20:18.550Z,15.46
2023-05-16T23:22:45.101Z,15.47
2023-05-16T23:25:11.697Z,15.49
2023-05-16T23:27:38.280Z,15.52
2023-05-16T23:30:05.176Z,15.54
2023-05-16T23:32:31.763Z,15.57
2023-05-16T23:34:58.497Z,15.59
2023-05-16T23:37:25.218Z,15.60
2023-05-16T23:39:51.800Z,15.62
2023-05-16T23:42:18.704Z,15.63
2023-05-16T23:44:46.366Z,15.65
2023-05-16T23:47:13.077Z,15.67
2023-05-16T23:49:40.711Z,15.68
2023-05-16T23:52:07.431Z,15.69
2023-05-16T23:54:34.217Z,15.70
2023-05-16T23:57:00.961Z,15.70
2023-05-16T23:59:27.578Z,15.70
